createdAt,value
2018-05-04T00:00:17.952Z,1019.12
2018-05-04T00:01:17.971Z,1019.15
2018-05-04T00:02:18.095Z,1019.18
2018-05-04T00:03:17.999Z,1019.16
2018-05-04T00:04:18.001Z,1019.22
2018-05-04T00:05:18.079Z,1019.22
2018-05-04T00:06:18.115Z,1019.21
2018-05-04T00:07:18.535Z,1019.2
2018-05-04T00:08:18.908Z,1019.24
2018-05-04T00:09:19.327Z,1019.26
2018-05-04T00:10:19.388Z,1019.27
2018-05-04T00:11:19.379Z,1019.3
2018-05-04T00:12:19.404Z,1019.26
2018-05-04T00:13:19.828Z,1019.32
2018-05-04T00:14:19.919Z,1019.29
2018-05-04T00:15:19.878Z,1019.26
2018-05-04T00:16:20.222Z,1019.27
2018-05-04T00:18:02.051Z,1019.26
2018-05-04T00:18:42.945Z,1019.24
2018-05-04T00:19:49.160Z,1019.3
2018-05-04T01:00:04.354Z,1019.55
2018-05-04T01:01:04.481Z,1019.56
2018-05-04T01:02:04.506Z,1019.62
2018-05-04T01:03:04.627Z,1019.59
2018-05-04T01:04:04.646Z,1019.62
2018-05-04T01:05:05.029Z,1019.64
2018-05-04T01:06:05.008Z,1019.7
2018-05-04T01:07:05.383Z,1019.68
2018-05-04T01:08:05.532Z,1019.63
2018-05-04T01:09:05.565Z,1019.64
2018-05-04T01:10:05.639Z,1019.64
2018-05-04T01:11:05.617Z,1019.68
2018-05-04T01:12:06.025Z,1019.63
2018-05-04T01:13:06.277Z,1019.62
2018-05-04T01:14:06.229Z,1019.7
2018-05-04T01:15:06.348Z,1019.7
2018-05-04T01:16:06.501Z,1019.73
2018-05-04T01:17:06.883Z,1019.74
2018-05-04T01:18:07.329Z,1019.71
2018-05-04T01:19:07.725Z,1019.74
2018-05-04T01:20:08.161Z,1019.74
2018-05-04T01:21:08.575Z,1019.77
2018-05-04T01:22:08.601Z,1019.73
2018-05-04T01:23:08.627Z,1019.77
2018-05-04T01:24:08.746Z,1019.78
2018-05-04T01:25:08.784Z,1019.83
2018-05-04T01:26:08.925Z,1019.81
2018-05-04T01:27:09.321Z,1019.81
2018-05-04T01:28:09.370Z,1019.81
2018-05-04T01:29:09.386Z,1019.85
2018-05-04T01:30:09.753Z,1019.85
2018-05-04T01:31:09.774Z,1019.86
2018-05-04T01:32:09.914Z,1019.86
2018-05-04T01:33:10.315Z,1019.91
2018-05-04T01:34:10.702Z,1019.88
2018-05-04T01:35:10.732Z,1019.92
2018-05-04T01:36:10.758Z,1019.87
2018-05-04T01:37:11.155Z,1019.94
2018-05-04T01:38:11.559Z,1019.9
2018-05-04T01:39:11.645Z,1020
2018-05-04T01:40:11.989Z,1019.96
2018-05-04T01:41:12.152Z,1019.96
2018-05-04T01:42:12.270Z,1019.98
2018-05-04T01:43:12.406Z,1020.01
2018-05-04T01:44:12.875Z,1019.97
2018-05-04T01:45:12.795Z,1019.97
2018-05-04T01:46:12.822Z,1019.97
2018-05-04T01:47:13.217Z,1019.98
2018-05-04T01:48:13.647Z,1019.98
2018-05-04T01:49:13.786Z,1019.99
2018-05-04T01:50:13.927Z,1020.03
2018-05-04T01:51:14.325Z,1019.99
2018-05-04T01:52:14.478Z,1020.02
2018-05-04T01:53:14.503Z,1019.98
2018-05-04T01:54:14.536Z,1019.96
2018-05-04T01:55:14.948Z,1020.01
2018-05-04T01:56:14.985Z,1020
2018-05-04T01:57:15.005Z,1020.03
2018-05-04T01:58:15.050Z,1020.02
2018-05-04T01:59:15.203Z,1020.06
2018-05-04T03:00:08.522Z,1020.18
2018-05-04T03:01:08.066Z,1020.22
2018-05-04T03:02:08.169Z,1020.2
2018-05-04T03:03:08.207Z,1020.27
2018-05-04T03:04:08.643Z,1020.23
2018-05-04T03:05:08.810Z,1020.24
2018-05-04T03:06:09.203Z,1020.24
2018-05-04T03:07:09.337Z,1020.28
2018-05-04T03:08:09.769Z,1020.26
2018-05-04T03:09:10.201Z,1020.32
2018-05-04T03:10:10.594Z,1020.27
2018-05-04T03:11:10.631Z,1020.24
2018-05-04T03:12:11.024Z,1020.3
2018-05-04T03:13:11.058Z,1020.32
2018-05-04T03:14:11.079Z,1020.32
2018-05-04T03:15:11.106Z,1020.33
2018-05-04T03:16:11.290Z,1020.34
2018-05-04T03:17:11.340Z,1020.33
2018-05-04T03:18:11.668Z,1020.33
2018-05-04T03:19:12.045Z,1020.36
2018-05-04T03:20:12.444Z,1020.37
2018-05-04T03:21:12.839Z,1020.36
2018-05-04T03:22:12.865Z,1020.32
2018-05-04T03:23:12.890Z,1020.36
2018-05-04T03:24:12.924Z,1020.4
2018-05-04T03:25:13.338Z,1020.35
2018-05-04T03:26:13.487Z,1020.41
2018-05-04T03:27:13.565Z,1020.39
2018-05-04T03:28:13.936Z,1020.38
2018-05-04T03:29:14.341Z,1020.4
2018-05-04T03:30:14.359Z,1020.34
2018-05-04T03:31:14.652Z,1020.35
2018-05-04T03:32:14.633Z,1020.34
2018-05-04T03:33:15.120Z,1020.38
2018-05-04T03:34:15.135Z,1020.37
2018-05-04T03:35:15.628Z,1020.43
2018-05-04T03:36:15.658Z,1020.46
2018-05-04T03:37:15.732Z,1020.43
2018-05-04T03:38:15.715Z,1020.49
2018-05-04T03:39:15.734Z,1020.53
2018-05-04T03:40:15.882Z,1020.48
2018-05-04T03:41:15.912Z,1020.46
2018-05-04T03:42:15.939Z,1020.45
2018-05-04T03:43:16.370Z,1020.49
2018-05-04T03:44:16.499Z,1020.48
2018-05-04T03:45:16.633Z,1020.46
2018-05-04T03:46:16.658Z,1020.49
2018-05-04T03:47:16.704Z,1020.44
2018-05-04T03:48:16.724Z,1020.47
2018-05-04T03:49:16.862Z,1020.41
2018-05-04T03:50:16.882Z,1020.44
2018-05-04T03:51:17.042Z,1020.4
2018-05-04T03:52:17.137Z,1020.4
2018-05-04T03:53:17.185Z,1020.35
2018-05-04T03:54:17.320Z,1020.37
2018-05-04T03:55:17.619Z,1020.33
2018-05-04T03:56:17.764Z,1020.29
2018-05-04T03:57:17.801Z,1020.3
2018-05-04T03:58:17.857Z,1020.26
2018-05-04T03:59:17.873Z,1020.25
2018-05-04T04:00:18.234Z,1020.25
2018-05-04T04:01:18.246Z,1020.26
2018-05-04T04:02:18.464Z,1020.24
2018-05-04T04:03:18.881Z,1020.23
2018-05-04T04:04:18.926Z,1020.24
2018-05-04T04:05:19.127Z,1020.26
2018-05-04T04:06:19.128Z,1020.26
2018-05-04T04:07:19.175Z,1020.27
2018-05-04T04:08:19.199Z,1020.28
2018-05-04T04:09:19.223Z,1020.25
2018-05-04T04:10:19.251Z,1020.24
2018-05-04T04:11:19.707Z,1020.33
2018-05-04T04:12:19.908Z,1020.26
2018-05-04T04:13:20.456Z,1020.26
2018-05-04T04:14:20.491Z,1020.27
2018-05-04T04:15:20.508Z,1020.28
2018-05-04T04:16:20.528Z,1020.23
2018-05-04T04:17:21.545Z,1020.24
2018-05-04T04:18:21.221Z,1020.26
2018-05-04T04:19:21.241Z,1020.24
2018-05-04T04:20:21.274Z,1020.23
2018-05-04T04:21:21.351Z,1020.27
2018-05-04T04:22:21.568Z,1020.23
2018-05-04T04:23:21.893Z,1020.18
2018-05-04T04:24:21.958Z,1020.21
2018-05-04T04:25:22.073Z,1020.19
2018-05-04T04:26:22.277Z,1020.16
2018-05-04T04:27:22.301Z,1020.21
2018-05-04T04:28:22.335Z,1020.21
2018-05-04T04:29:22.358Z,1020.19
2018-05-04T04:30:22.802Z,1020.21
2018-05-04T04:31:23.253Z,1020.22
2018-05-04T04:32:23.565Z,1020.21
2018-05-04T04:33:23.992Z,1020.22
2018-05-04T04:34:24.167Z,1020.21
2018-05-04T04:35:24.263Z,1020.21
2018-05-04T04:36:24.666Z,1020.19
2018-05-04T04:37:25.098Z,1020.19
2018-05-04T04:38:25.142Z,1020.18
2018-05-04T04:39:25.322Z,1020.17
2018-05-04T04:40:25.730Z,1020.14
2018-05-04T04:41:26.450Z,1020.19
2018-05-04T04:42:26.645Z,1020.17
2018-05-04T04:43:26.342Z,1020.21
2018-05-04T04:44:27.243Z,1020.11
2018-05-04T04:45:27.196Z,1020.19
2018-05-04T04:46:27.008Z,1020.23
2018-05-04T04:47:27.354Z,1020.19
2018-05-04T04:48:27.401Z,1020.24
2018-05-04T04:49:27.416Z,1020.24
2018-05-04T04:50:27.474Z,1020.26
2018-05-04T04:51:27.458Z,1020.23
2018-05-04T04:52:27.735Z,1020.25
2018-05-04T04:53:28.147Z,1020.25
2018-05-04T04:54:28.172Z,1020.25
2018-05-04T04:55:28.345Z,1020.19
2018-05-04T04:56:28.467Z,1020.22
2018-05-04T04:57:28.932Z,1020.29
2018-05-04T04:58:28.983Z,1020.28
2018-05-04T04:59:28.974Z,1020.3
2018-05-04T05:00:29.001Z,1020.38
2018-05-04T05:01:29.029Z,1020.37
2018-05-04T05:02:29.062Z,1020.38
2018-05-04T05:03:29.276Z,1020.36
2018-05-04T05:04:29.297Z,1020.4
2018-05-04T05:05:29.502Z,1020.46
2018-05-04T05:06:29.534Z,1020.49
2018-05-04T05:07:29.566Z,1020.52
2018-05-04T05:08:29.591Z,1020.48
2018-05-04T05:09:29.618Z,1020.46
2018-05-04T05:10:30.084Z,1020.45
2018-05-04T05:11:30.119Z,1020.52
2018-05-04T05:12:30.181Z,1020.46
2018-05-04T05:13:30.666Z,1020.5
2018-05-04T05:14:30.680Z,1020.5
2018-05-04T05:15:30.703Z,1020.55
2018-05-04T05:16:31.040Z,1020.51
2018-05-04T05:17:30.717Z,1020.58
2018-05-04T05:18:30.741Z,1020.55
2018-05-04T05:19:30.955Z,1020.55
2018-05-04T05:20:30.988Z,1020.61
2018-05-04T05:21:31.011Z,1020.65
2018-05-04T05:22:31.255Z,1020.59
2018-05-04T05:23:31.481Z,1020.62
2018-05-04T05:24:31.523Z,1020.64
2018-05-04T05:25:31.552Z,1020.73
2018-05-04T05:26:31.575Z,1020.84
2018-05-04T05:27:31.607Z,1020.81
2018-05-04T05:28:31.632Z,1020.79
2018-05-04T05:29:31.689Z,1020.88
2018-05-04T05:30:31.680Z,1020.88
2018-05-04T05:31:32.164Z,1020.86
2018-05-04T05:32:32.232Z,1020.82
2018-05-04T05:33:32.293Z,1020.84
2018-05-04T05:34:32.259Z,1020.93
2018-05-04T05:35:32.295Z,1020.92
2018-05-04T05:36:32.314Z,1020.91
2018-05-04T05:37:33.080Z,1020.85
2018-05-04T05:38:33.064Z,1020.83
2018-05-04T05:39:33.097Z,1020.81
2018-05-04T05:40:33.329Z,1020.72
2018-05-04T05:41:33.366Z,1020.72
2018-05-04T05:42:33.440Z,1020.73
2018-05-04T05:43:33.485Z,1020.73
2018-05-04T05:44:33.747Z,1020.79
2018-05-04T05:45:33.785Z,1020.83
2018-05-04T05:46:33.978Z,1020.8
2018-05-04T05:47:34.162Z,1020.86
2018-05-04T05:48:34.186Z,1020.81
2018-05-04T05:49:34.453Z,1020.86
2018-05-04T05:50:34.227Z,1020.84
2018-05-04T05:51:34.585Z,1020.83
2018-05-04T05:52:34.886Z,1020.86
2018-05-04T05:53:34.913Z,1020.84
2018-05-04T05:54:34.998Z,1020.82
2018-05-04T05:55:34.977Z,1020.87
2018-05-04T05:56:34.972Z,1020.85
2018-05-04T05:57:35.004Z,1020.88
2018-05-04T05:58:35.622Z,1020.93
2018-05-04T05:59:35.604Z,1020.9
2018-05-04T06:00:35.682Z,1020.92
2018-05-04T06:01:36.065Z,1021.01
2018-05-04T06:02:36.078Z,1020.97
2018-05-04T06:03:35.886Z,1021.05
2018-05-04T06:04:35.916Z,1021.06
2018-05-04T06:05:36.026Z,1021.07
2018-05-04T06:06:35.966Z,1021.02
2018-05-04T06:07:36.062Z,1021.1
2018-05-04T06:08:36.238Z,1021.15
2018-05-04T06:09:36.640Z,1021.14
2018-05-04T06:10:36.444Z,1021.16
2018-05-04T06:11:36.861Z,1021.18
2018-05-04T06:12:37.359Z,1021.18
2018-05-04T06:13:37.386Z,1021.2
2018-05-04T06:14:37.870Z,1021.19
2018-05-04T06:15:38.053Z,1021.24
2018-05-04T06:16:38.236Z,1021.23
2018-05-04T06:17:38.294Z,1021.3
2018-05-04T06:18:38.278Z,1021.3
2018-05-04T06:19:38.309Z,1021.3
2018-05-04T06:20:38.512Z,1021.31
2018-05-04T06:21:38.831Z,1021.28
2018-05-04T06:22:38.836Z,1021.32
2018-05-04T06:23:39.035Z,1021.31
2018-05-04T06:24:39.059Z,1021.26
2018-05-04T06:25:39.076Z,1021.31
2018-05-04T06:26:39.482Z,1021.32
2018-05-04T06:27:39.664Z,1021.32
2018-05-04T06:28:39.702Z,1021.25
2018-05-04T06:29:39.714Z,1021.21
2018-05-04T06:30:39.764Z,1021.22
2018-05-04T06:31:39.961Z,1021.22
2018-05-04T06:32:39.990Z,1021.26
2018-05-04T06:33:40.009Z,1021.27
2018-05-04T06:34:40.063Z,1021.27
2018-05-04T06:35:40.103Z,1021.3
2018-05-04T06:36:40.272Z,1021.31
2018-05-04T06:37:40.291Z,1021.29
2018-05-04T06:38:40.422Z,1021.29
2018-05-04T06:39:40.491Z,1021.28
2018-05-04T06:40:40.527Z,1021.28
2018-05-04T06:41:40.541Z,1021.27
2018-05-04T06:42:40.577Z,1021.29
2018-05-04T06:43:40.781Z,1021.23
2018-05-04T06:44:40.801Z,1021.31
2018-05-04T06:45:40.924Z,1021.34
2018-05-04T06:46:40.906Z,1021.31
2018-05-04T06:47:41.553Z,1021.35
2018-05-04T06:48:42.102Z,1021.32
2018-05-04T06:49:42.091Z,1021.33
2018-05-04T06:50:42.482Z,1021.37
2018-05-04T06:51:42.512Z,1021.33
2018-05-04T06:52:42.942Z,1021.31
2018-05-04T06:53:43.005Z,1021.32
2018-05-04T06:54:43.163Z,1021.4
2018-05-04T06:55:43.344Z,1021.39
2018-05-04T06:56:43.650Z,1021.44
2018-05-04T06:57:43.827Z,1021.46
2018-05-04T06:58:44.072Z,1021.46
2018-05-04T06:59:44.067Z,1021.45
2018-05-04T07:00:44.102Z,1021.47
2018-05-04T07:01:44.140Z,1021.46
2018-05-04T07:02:44.205Z,1021.47
2018-05-04T07:03:44.314Z,1021.47
2018-05-04T07:04:44.588Z,1021.53
2018-05-04T07:05:44.628Z,1021.57
2018-05-04T07:06:44.645Z,1021.6
2018-05-04T07:07:44.671Z,1021.58
2018-05-04T07:08:44.928Z,1021.55
2018-05-04T07:09:44.809Z,1021.6
2018-05-04T07:10:44.623Z,1021.62
2018-05-04T07:11:44.835Z,1021.64
2018-05-04T07:12:44.576Z,1021.61
2018-05-04T07:13:45.009Z,1021.6
2018-05-04T07:14:45.048Z,1021.57
2018-05-04T07:15:45.187Z,1021.61
2018-05-04T07:16:45.353Z,1021.6
2018-05-04T07:17:45.563Z,1021.63
2018-05-04T07:18:45.665Z,1021.64
2018-05-04T07:19:45.966Z,1021.58
2018-05-04T07:20:46.028Z,1021.68
2018-05-04T07:21:46.070Z,1021.67
2018-05-04T07:22:46.196Z,1021.64
2018-05-04T07:23:46.131Z,1021.7
2018-05-04T07:24:46.165Z,1021.72
2018-05-04T07:25:46.204Z,1021.74
2018-05-04T07:26:46.426Z,1021.69
2018-05-04T07:27:46.454Z,1021.72
2018-05-04T07:28:46.638Z,1021.65
2018-05-04T07:29:46.538Z,1021.69
2018-05-04T07:30:46.566Z,1021.65
2018-05-04T07:31:46.782Z,1021.67
2018-05-04T07:32:46.913Z,1021.63
2018-05-04T07:33:46.864Z,1021.65
2018-05-04T07:34:46.908Z,1021.65
2018-05-04T07:35:47.087Z,1021.66
2018-05-04T07:36:47.102Z,1021.64
2018-05-04T07:37:47.491Z,1021.64
2018-05-04T07:38:47.559Z,1021.64
2018-05-04T07:39:47.621Z,1021.65
2018-05-04T07:40:47.644Z,1021.62
2018-05-04T07:41:47.784Z,1021.62
2018-05-04T07:42:47.824Z,1021.68
2018-05-04T07:43:47.862Z,1021.68
2018-05-04T07:44:47.910Z,1021.69
2018-05-04T07:45:48.064Z,1021.71
2018-05-04T07:46:48.102Z,1021.68
2018-05-04T07:47:48.138Z,1021.74
2018-05-04T07:48:48.228Z,1021.76
2018-05-04T07:49:48.219Z,1021.67
2018-05-04T07:50:48.372Z,1021.74
2018-05-04T07:51:48.409Z,1021.76
2018-05-04T07:52:48.819Z,1021.74
2018-05-04T07:53:48.876Z,1021.76
2018-05-04T07:54:49.018Z,1021.74
2018-05-04T07:55:49.043Z,1021.72
2018-05-04T07:56:49.129Z,1021.69
2018-05-04T07:57:49.102Z,1021.65
2018-05-04T07:58:49.144Z,1021.7
2018-05-04T07:59:49.217Z,1021.72
2018-05-04T08:00:49.235Z,1021.68
2018-05-04T08:01:50.118Z,1021.7
2018-05-04T08:02:49.962Z,1021.63
2018-05-04T08:03:49.989Z,1021.64
2018-05-04T08:04:50.425Z,1021.78
2018-05-04T08:05:50.615Z,1021.84
2018-05-04T08:06:50.845Z,1021.86
2018-05-04T08:07:50.670Z,1021.87
2018-05-04T08:08:50.842Z,1021.78
2018-05-04T08:09:51.182Z,1021.92
2018-05-04T08:10:51.370Z,1021.84
2018-05-04T08:11:51.626Z,1021.85
2018-05-04T08:12:51.523Z,1021.87
2018-05-04T08:13:51.756Z,1021.93
2018-05-04T08:14:52.193Z,1022.05
2018-05-04T08:15:52.212Z,1022.25
2018-05-04T08:16:52.642Z,1022.21
2018-05-04T08:17:52.685Z,1022.13
2018-05-04T08:18:53.077Z,1022.04
2018-05-04T08:19:53.215Z,1022
2018-05-04T08:20:53.254Z,1022.03
2018-05-04T08:21:53.291Z,1022.07
2018-05-04T08:22:53.339Z,1022.11
2018-05-04T08:23:53.362Z,1022.13
2018-05-04T08:24:53.416Z,1022.09
2018-05-04T08:25:53.642Z,1022.13
2018-05-04T08:26:53.626Z,1022.07
2018-05-04T08:27:54.093Z,1022.02
2018-05-04T08:28:54.252Z,1022.01
2018-05-04T08:29:54.550Z,1022.05
2018-05-04T08:30:54.725Z,1022.01
2018-05-04T08:31:55.188Z,1022.04
2018-05-04T08:32:55.334Z,1022.06
2018-05-04T08:33:55.372Z,1022.07
2018-05-04T08:34:55.443Z,1022.13
2018-05-04T08:35:55.902Z,1022.13
2018-05-04T08:36:56.078Z,1022.12
2018-05-04T08:37:56.320Z,1022.08
2018-05-04T08:38:56.369Z,1022.11
2018-05-04T08:39:56.393Z,1022.12
2018-05-04T08:40:56.441Z,1022.11
2018-05-04T08:41:56.484Z,1022.14
2018-05-04T08:42:56.855Z,1022.12
2018-05-04T08:43:56.843Z,1022.06
2018-05-04T08:44:57.070Z,1022.2
2018-05-04T08:45:57.048Z,1022.12
2018-05-04T08:46:57.297Z,1022.15
2018-05-04T08:47:57.741Z,1022.12
2018-05-04T08:48:57.799Z,1022.14
2018-05-04T08:49:57.838Z,1022.17
2018-05-04T08:50:57.883Z,1022.13
2018-05-04T08:51:57.911Z,1022.18
2018-05-04T08:52:57.948Z,1022.24
2018-05-04T08:53:57.995Z,1022.25
2018-05-04T08:54:58.036Z,1022.18
2018-05-04T08:55:58.075Z,1022.24
2018-05-04T08:56:58.310Z,1022.21
2018-05-04T08:57:58.338Z,1022.17
2018-05-04T08:58:58.386Z,1022.24
2018-05-04T08:59:58.845Z,1022.28
2018-05-04T09:00:58.879Z,1022.24
2018-05-04T09:01:59.099Z,1022.24
2018-05-04T09:02:59.139Z,1022.22
2018-05-04T09:03:59.182Z,1022.29
2018-05-04T09:04:59.235Z,1022.32
2018-05-04T09:05:59.300Z,1022.25
2018-05-04T09:06:59.608Z,1022.19
2018-05-04T09:07:59.648Z,1022.19
2018-05-04T09:08:59.921Z,1022.14
2018-05-04T09:09:59.957Z,1022.14
2018-05-04T09:11:00.249Z,1022.21
2018-05-04T09:12:00.542Z,1022.18
2018-05-04T09:13:00.567Z,1022.21
2018-05-04T09:14:01.053Z,1022.21
2018-05-04T09:15:01.101Z,1022.2
2018-05-04T09:16:01.137Z,1022.17
2018-05-04T09:17:01.178Z,1022.08
2018-05-04T09:18:01.263Z,1022.08
2018-05-04T09:19:01.304Z,1022.1
2018-05-04T09:20:01.352Z,1022.15
2018-05-04T09:21:01.386Z,1022.17
2018-05-04T09:22:01.427Z,1022.2
2018-05-04T09:23:01.471Z,1022.2
2018-05-04T09:24:01.506Z,1022.17
2018-05-04T09:25:01.555Z,1022.15
2018-05-04T09:26:01.662Z,1022.13
2018-05-04T09:27:01.654Z,1022.11
2018-05-04T09:28:01.673Z,1022.1
2018-05-04T09:29:01.930Z,1022.12
2018-05-04T09:30:01.979Z,1022.11
2018-05-04T09:31:02.039Z,1022.15
2018-05-04T09:32:02.043Z,1022.12
2018-05-04T09:33:02.288Z,1022.15
2018-05-04T09:34:02.586Z,1022.15
2018-05-04T09:35:02.624Z,1022.16
2018-05-04T09:36:02.886Z,1022.18
2018-05-04T09:37:03.129Z,1022.15
2018-05-04T09:38:03.179Z,1022.22
2018-05-04T09:39:03.460Z,1022.17
2018-05-04T09:40:03.493Z,1022.22
2018-05-04T09:41:03.575Z,1022.22
2018-05-04T09:42:03.565Z,1022.22
2018-05-04T09:43:03.606Z,1022.27
2018-05-04T09:44:03.645Z,1022.25
2018-05-04T09:45:03.683Z,1022.21
2018-05-04T09:46:03.967Z,1022.18
2018-05-04T09:47:03.983Z,1022.14
2018-05-04T09:48:04.274Z,1021.94
2018-05-04T09:49:04.385Z,1021.66
2018-05-04T09:50:04.420Z,1021.43
2018-05-04T09:51:04.705Z,1021.44
2018-05-04T09:52:04.757Z,1021.42
2018-05-04T09:53:04.779Z,1021.49
2018-05-04T09:54:04.823Z,1021.41
2018-05-04T09:55:05.322Z,1021.43
2018-05-04T09:56:05.394Z,1021.42
2018-05-04T09:57:05.397Z,1021.39
2018-05-04T09:58:05.510Z,1021.39
2018-05-04T09:59:05.470Z,1021.42
2018-05-04T10:00:07.009Z,1021.38
2018-05-04T10:01:06.547Z,1021.41
2018-05-04T10:02:06.585Z,1021.41
2018-05-04T10:03:06.626Z,1021.37
2018-05-04T10:04:06.661Z,1021.31
2018-05-04T10:05:06.706Z,1021.28
2018-05-04T10:06:06.969Z,1021.29
2018-05-04T10:07:07.446Z,1021.23
2018-05-04T10:08:07.732Z,1021.24
2018-05-04T10:09:07.738Z,1021.23
2018-05-04T10:10:07.767Z,1021.26
2018-05-04T10:11:07.808Z,1021.17
2018-05-04T10:12:07.845Z,1021.28
2018-05-04T10:13:07.881Z,1021.3
2018-05-04T10:14:08.155Z,1021.28
2018-05-04T10:15:08.185Z,1021.27
2018-05-04T10:16:08.297Z,1021.33
2018-05-04T10:17:08.528Z,1021.3
2018-05-04T10:18:08.566Z,1021.29
2018-05-04T10:19:09.166Z,1021.37
2018-05-04T10:20:09.077Z,1021.31
2018-05-04T10:21:09.103Z,1021.31
2018-05-04T10:22:09.160Z,1021.29
2018-05-04T10:23:09.182Z,1021.26
2018-05-04T10:24:09.422Z,1021.28
2018-05-04T10:25:09.544Z,1021.31
2018-05-04T10:26:09.586Z,1021.27
2018-05-04T10:27:09.653Z,1021.22
2018-05-04T10:28:09.794Z,1021.22
2018-05-04T10:29:09.703Z,1021.19
2018-05-04T10:30:10.095Z,1021.17
2018-05-04T10:31:10.066Z,1021.19
2018-05-04T10:32:10.115Z,1021.18
2018-05-04T10:33:10.142Z,1021.25
2018-05-04T10:34:10.470Z,1021.21
2018-05-04T10:35:10.497Z,1021.2
2018-05-04T10:36:10.523Z,1021.19
2018-05-04T10:37:10.572Z,1021.22
2018-05-04T10:38:10.632Z,1021.27
2018-05-04T10:39:10.651Z,1021.21
2018-05-04T10:40:10.681Z,1021.2
2018-05-04T10:41:10.712Z,1021.19
2018-05-04T10:42:10.749Z,1021.16
2018-05-04T10:43:10.789Z,1021.18
2018-05-04T10:44:10.991Z,1021.2
2018-05-04T10:45:11.117Z,1021.2
2018-05-04T10:46:11.060Z,1021.22
2018-05-04T10:47:11.324Z,1021.19
2018-05-04T10:48:11.179Z,1021.25
2018-05-04T10:49:11.193Z,1021.22
2018-05-04T10:50:11.233Z,1021.17
2018-05-04T10:51:11.268Z,1021.2
2018-05-04T10:52:11.353Z,1021.14
2018-05-04T10:53:11.338Z,1021.16
2018-05-04T10:54:11.534Z,1021.19
2018-05-04T10:55:11.569Z,1021.17
2018-05-04T10:56:11.607Z,1021.15
2018-05-04T10:57:11.704Z,1021.14
2018-05-04T10:58:12.017Z,1021.22
2018-05-04T10:59:12.051Z,1021.13
2018-05-04T11:00:15.239Z,1021.14
2018-05-04T11:01:15.394Z,1021.16
2018-05-04T11:02:15.409Z,1021.19
2018-05-04T11:03:15.468Z,1021.2
2018-05-04T11:04:15.489Z,1021.13
2018-05-04T11:05:15.677Z,1021.14
2018-05-04T11:06:15.790Z,1021.17
2018-05-04T11:07:15.830Z,1021.15
2018-05-04T11:08:15.944Z,1021.19
2018-05-04T11:09:16.348Z,1021.14
2018-05-04T11:10:16.469Z,1021.11
2018-05-04T11:11:16.598Z,1021.11
2018-05-04T11:12:17.054Z,1021.07
2018-05-04T11:13:17.143Z,1021.06
2018-05-04T11:14:17.245Z,1021.04
2018-05-04T11:15:17.157Z,1021.06
2018-05-04T11:16:17.202Z,1021.09
2018-05-04T11:17:17.616Z,1021.04
2018-05-04T11:18:17.648Z,1021.05
2018-05-04T11:19:17.697Z,1021.04
2018-05-04T11:20:17.721Z,1021.04
2018-05-04T11:21:17.761Z,1021.04
2018-05-04T11:22:17.855Z,1020.97
2018-05-04T11:23:17.983Z,1020.99
2018-05-04T11:24:18.251Z,1020.93
2018-05-04T11:25:18.549Z,1020.91
2018-05-04T11:26:18.555Z,1020.93
2018-05-04T11:27:18.637Z,1020.91
2018-05-04T11:28:18.701Z,1020.89
2018-05-04T11:29:18.662Z,1020.89
2018-05-04T11:30:19.046Z,1020.94
2018-05-04T11:31:19.225Z,1020.96
2018-05-04T11:32:19.399Z,1020.91
2018-05-04T11:33:20.659Z,1020.94
2018-05-04T11:34:20.394Z,1020.89
2018-05-04T11:35:21.037Z,1020.91
2018-05-04T11:36:20.469Z,1020.97
2018-05-04T11:37:20.841Z,1020.93
2018-05-04T11:38:20.880Z,1020.99
2018-05-04T11:39:21.060Z,1020.96
2018-05-04T11:40:21.401Z,1020.99
2018-05-04T11:41:21.480Z,1021.03
2018-05-04T11:42:21.806Z,1021.01
2018-05-04T11:43:22.165Z,1021.01
2018-05-04T11:44:22.565Z,1020.91
2018-05-04T11:45:22.653Z,1020.99
2018-05-04T11:46:23.045Z,1020.94
2018-05-04T11:47:23.059Z,1020.93
2018-05-04T11:48:23.666Z,1020.93
2018-05-04T11:49:23.582Z,1020.96
2018-05-04T11:50:23.649Z,1020.98
2018-05-04T11:51:24.289Z,1020.95
2018-05-04T11:52:24.185Z,1020.94
2018-05-04T11:53:24.278Z,1020.96
2018-05-04T11:54:24.321Z,1020.95
2018-05-04T11:55:24.357Z,1020.92
2018-05-04T11:56:24.765Z,1020.97
2018-05-04T11:57:24.880Z,1020.95
2018-05-04T11:58:25.071Z,1020.97
2018-05-04T11:59:25.226Z,1020.98
2018-05-04T13:00:11.102Z,1020.92
2018-05-04T13:01:10.726Z,1020.92
2018-05-04T13:02:10.697Z,1020.88
2018-05-04T13:03:11.151Z,1020.94
2018-05-04T13:04:11.176Z,1020.97
2018-05-04T13:05:11.635Z,1020.95
2018-05-04T13:06:11.688Z,1020.99
2018-05-04T13:07:11.695Z,1020.97
2018-05-04T13:08:11.931Z,1020.95
2018-05-04T13:09:12.353Z,1020.98
2018-05-04T13:10:12.366Z,1020.99
2018-05-04T13:11:12.392Z,1020.86
2018-05-04T13:12:12.434Z,1020.87
2018-05-04T13:13:12.484Z,1020.88
2018-05-04T13:14:12.946Z,1020.9
2018-05-04T13:15:13.357Z,1020.86
2018-05-04T13:16:13.389Z,1020.79
2018-05-04T13:17:13.435Z,1020.84
2018-05-04T13:18:13.464Z,1020.83
2018-05-04T13:19:13.855Z,1020.78
2018-05-04T13:20:13.987Z,1020.82
2018-05-04T13:21:14.415Z,1020.83
2018-05-04T13:22:14.582Z,1020.77
2018-05-04T13:23:14.664Z,1020.78
2018-05-04T13:24:14.639Z,1020.81
2018-05-04T13:25:14.997Z,1020.78
2018-05-04T13:26:15.037Z,1020.8
2018-05-04T13:27:15.070Z,1020.78
2018-05-04T13:28:15.380Z,1020.77
2018-05-04T13:29:15.400Z,1020.7
2018-05-04T13:30:15.426Z,1020.68
2018-05-04T13:31:15.480Z,1020.68
2018-05-04T13:32:15.618Z,1020.69
2018-05-04T13:33:15.658Z,1020.69
2018-05-04T13:34:15.689Z,1020.75
2018-05-04T13:35:16.317Z,1020.65
2018-05-04T13:36:16.281Z,1020.69
2018-05-04T13:37:16.767Z,1020.68
2018-05-04T13:38:17.128Z,1020.64
2018-05-04T13:39:17.278Z,1020.58
2018-05-04T13:40:17.392Z,1020.55
2018-05-04T13:41:17.340Z,1020.53
2018-05-04T13:42:17.383Z,1020.56
2018-05-04T13:43:17.789Z,1020.52
2018-05-04T13:44:17.848Z,1020.54
2018-05-04T13:45:18.092Z,1020.57
2018-05-04T13:46:18.044Z,1020.54
2018-05-04T13:47:18.058Z,1020.54
2018-05-04T13:48:18.468Z,1020.49
2018-05-04T13:49:18.530Z,1020.46
2018-05-04T13:50:19.845Z,1020.48
2018-05-04T13:51:19.808Z,1020.44
2018-05-04T13:52:19.544Z,1020.46
2018-05-04T13:53:19.636Z,1020.43
2018-05-04T13:54:19.629Z,1020.38
2018-05-04T13:55:19.666Z,1020.47
2018-05-04T13:56:19.557Z,1020.5
2018-05-04T13:57:19.988Z,1020.58
2018-05-04T13:58:20.430Z,1020.56
2018-05-04T13:59:20.244Z,1020.56
2018-05-04T14:00:20.213Z,1020.52
2018-05-04T14:01:20.312Z,1020.5
2018-05-04T14:02:20.586Z,1020.48
2018-05-04T14:03:20.633Z,1020.52
2018-05-04T14:04:20.655Z,1020.48
2018-05-04T14:05:20.939Z,1020.45
2018-05-04T14:06:21.697Z,1020.48
2018-05-04T14:07:21.325Z,1020.46
2018-05-04T14:08:21.321Z,1020.41
2018-05-04T14:09:21.367Z,1020.44
2018-05-04T14:10:21.883Z,1020.48
2018-05-04T14:11:22.398Z,1020.46
2018-05-04T14:12:21.952Z,1020.48
2018-05-04T14:13:21.987Z,1020.51
2018-05-04T14:14:22.403Z,1020.48
2018-05-04T14:15:22.232Z,1020.5
2018-05-04T14:16:22.152Z,1020.49
2018-05-04T14:17:22.120Z,1020.48
2018-05-04T14:18:22.153Z,1020.53
2018-05-04T14:19:22.189Z,1020.53
2018-05-04T14:20:22.221Z,1020.5
2018-05-04T14:21:22.255Z,1020.48
2018-05-04T14:22:22.338Z,1020.47
2018-05-04T14:23:22.762Z,1020.45
2018-05-04T14:24:22.897Z,1020.44
2018-05-04T14:25:23.341Z,1020.51
2018-05-04T14:26:23.378Z,1020.5
2018-05-04T14:27:23.412Z,1020.53
2018-05-04T14:28:23.577Z,1020.56
2018-05-04T14:29:23.591Z,1020.58
2018-05-04T14:30:23.754Z,1020.54
2018-05-04T14:31:23.787Z,1020.59
2018-05-04T14:32:23.817Z,1020.58
2018-05-04T14:33:24.222Z,1020.5
2018-05-04T14:34:24.277Z,1020.53
2018-05-04T14:35:24.711Z,1020.56
2018-05-04T14:36:24.744Z,1020.55
2018-05-04T14:37:24.782Z,1020.56
2018-05-04T14:38:24.811Z,1020.58
2018-05-04T14:39:25.255Z,1020.55
2018-05-04T14:40:25.681Z,1020.55
2018-05-04T14:41:25.704Z,1020.56
2018-05-04T14:42:25.728Z,1020.53
2018-05-04T14:43:25.764Z,1020.47
2018-05-04T14:44:25.918Z,1020.52
2018-05-04T14:45:25.945Z,1020.53
2018-05-04T14:46:26.107Z,1020.52
2018-05-04T14:47:26.200Z,1020.49
2018-05-04T14:48:26.433Z,1020.47